Time;durP1;ratioP1;P1;durP2;ratioP2;P2;SDS_P1;SDS_P2;PMS_P1;PMS_P2;Temp;Humidity;BMP_temperature;BMP_pressure;BME280_temperature;BME280_humidity;BME280_pressure;Samples;Min_cycle;Max_cycle;Signal;HPM_P1;HPM_P2
2021/01/25 00:02:21;;;;;;;3.52;2.65;;;;;;;16.47;89.41;77019.27;1789556;79;21221;-56
2021/01/25 00:04:54;;;;;;;3.67;2.30;;;;;;;16.41;88.95;74836.91;1791406;79;21186;-57
2021/01/25 00:07:26;;;;;;;3.33;2.10;;;;;;;16.67;88.61;72609.14;1804788;79;21329;-56
2021/01/25 00:09:59;;;;;;;3.90;2.35;;;;;;;16.53;88.44;71589.31;1819167;79;21297;-57
2021/01/25 00:12:31;;;;;;;3.17;1.77;;;;;;;16.52;88.81;74630.59;1789018;79;21316;-56
2021/01/25 00:15:06;;;;;;;4.03;2.37;;;;;;;16.56;88.53;72023.77;1798548;79;21293;-56
2021/01/25 00:17:38;;;;;;;3.80;2.12;;;;;;;16.57;88.41;71768.50;1816913;79;21195;-56
2021/01/25 00:20:12;;;;;;;3.33;2.40;;;;;;;16.58;88.28;71550.29;1794062;79;21205;-56
2021/01/25 00:22:45;;;;;;;4.53;2.90;;;;;;;16.61;88.30;71675.69;1819292;79;21693;-56
2021/01/25 00:25:18;;;;;;;4.03;2.70;;;;;;;16.48;88.45;72809.91;1819914;79;21233;-56
2021/01/25 00:27:51;;;;;;;3.87;2.85;;;;;;;16.41;88.43;72663.69;1804263;79;21194;-57
2021/01/25 00:30:23;;;;;;;3.67;2.40;;;;;;;16.40;88.14;71495.48;1792931;79;21356;-57
2021/01/25 00:32:56;;;;;;;3.05;2.15;;;;;;;16.38;88.11;71067.91;1801815;77;21197;-56
2021/01/25 00:35:28;;;;;;;3.75;2.47;;;;;;;16.31;87.61;68851.47;1815155;79;21297;-56
2021/01/25 00:38:01;;;;;;;3.62;2.50;;;;;;;16.26;87.70;68334.80;1798734;79;21285;-56
2021/01/25 00:40:33;;;;;;;3.42;2.58;;;;;;;16.23;87.36;66454.28;1803681;79;21202;-56
2021/01/25 00:43:05;;;;;;;3.65;2.52;;;;;;;16.56;86.56;65846.62;1819679;79;21309;-56
2021/01/25 00:45:39;;;;;;;3.72;2.35;;;;;;;16.20;87.22;65315.67;1817922;79;21407;-56
2021/01/25 00:48:11;;;;;;;3.80;2.90;;;;;;;16.57;86.97;64770.74;1803421;79;21304;-56
2021/01/25 00:50:43;;;;;;;4.25;2.70;;;;;;;16.63;86.98;64632.16;1787369;79;21388;-56
2021/01/25 00:53:17;;;;;;;5.72;3.17;;;;;;;16.71;86.73;64116.06;1800461;79;21194;-57
2021/01/25 00:55:50;;;;;;;3.83;2.77;;;;;;;16.73;86.78;64547.67;1787137;80;21174;-56
2021/01/25 00:58:22;;;;;;;3.95;2.60;;;;;;;16.76;86.76;64548.81;1787850;79;21312;-56
2021/01/25 01:00:54;;;;;;;5.03;2.83;;;;;;;16.76;86.70;64653.93;1806967;79;21339;-56
2021/01/25 01:03:26;;;;;;;5.55;3.25;;;;;;;16.81;86.53;64619.88;1816940;79;21380;-55
2021/01/25 01:05:59;;;;;;;7.17;4.05;;;;;;;16.82;86.43;64222.34;1800998;79;21368;-57
2021/01/25 01:08:32;;;;;;;7.50;4.30;;;;;;;16.81;86.05;65181.06;1803476;79;21784;-56
2021/01/25 01:11:05;;;;;;;8.55;4.17;;;;;;;16.74;86.09;64886.52;1818259;79;21174;-56
2021/01/25 01:13:37;;;;;;;8.30;4.65;;;;;;;16.46;86.81;65297.58;1818310;79;21372;-57
2021/01/25 01:16:10;;;;;;;6.90;3.85;;;;;;;16.38;87.62;71395.98;1819046;79;21218;-57
2021/01/25 01:18:43;;;;;;;8.43;3.80;;;;;;;16.33;87.23;70402.34;1818737;79;21297;-57
2021/01/25 01:21:15;;;;;;;8.15;3.47;;;;;;;16.34;87.75;72173.70;1814281;79;21360;-57
2021/01/25 01:23:47;;;;;;;6.60;3.83;;;;;;;16.36;87.49;71376.39;1787282;80;21218;-57
2021/01/25 01:26:21;;;;;;;4.33;3.27;;;;;;;16.69;86.71;66650.06;1789556;79;21697;-57
2021/01/25 01:28:53;;;;;;;5.35;3.65;;;;;;;16.73;86.09;65943.06;1791745;79;21167;-56
2021/01/25 01:31:25;;;;;;;5.90;3.42;;;;;;;16.76;86.17;65941.55;1803515;79;21279;-57
2021/01/25 01:33:58;;;;;;;5.83;3.30;;;;;;;16.81;85.90;65801.06;1793106;79;21459;-57
2021/01/25 01:36:30;;;;;;;6.28;3.22;;;;;;;16.77;85.31;63368.71;1816755;79;21166;-57
2021/01/25 01:39:03;;;;;;;4.80;3.05;;;;;;;16.73;85.46;64026.25;1814393;79;21182;-56
2021/01/25 01:41:38;;;;;;;8.28;3.40;;;;;;;16.74;85.53;63937.27;1816608;79;21364;-57
2021/01/25 01:44:11;;;;;;;5.42;3.58;;;;;;;16.74;85.31;63259.01;1819442;79;21336;-57
2021/01/25 01:46:44;;;;;;;7.00;3.17;;;;;;;16.71;84.88;61500.08;1811508;79;21147;-57
2021/01/25 01:49:16;;;;;;;5.42;3.52;;;;;;;16.68;84.57;60106.18;1802688;79;21337;-57
2021/01/25 01:51:49;;;;;;;7.47;4.00;;;;;;;16.65;85.06;62582.14;1796837;79;21174;-57
2021/01/25 01:54:21;;;;;;;8.95;3.85;;;;;;;16.58;85.30;62153.18;1802926;79;21388;-57
2021/01/25 01:56:53;;;;;;;6.65;3.70;;;;;;;16.59;84.79;60718.46;1799092;79;21285;-57
2021/01/25 01:59:26;;;;;;;5.58;3.80;;;;;;;16.50;84.73;60807.23;1797097;79;21305;-57
2021/01/25 02:01:59;;;;;;;6.97;4.05;;;;;;;16.22;85.43;61252.14;1775582;79;22395;-57
2021/01/25 02:04:32;;;;;;;6.83;3.90;;;;;;;16.00;86.19;65386.02;1783155;79;21304;-56
2021/01/25 02:07:06;;;;;;;5.72;3.90;;;;;;;16.00;86.69;68303.03;1775036;79;21217;-57
2021/01/25 02:09:41;;;;;;;6.92;4.03;;;;;;;15.93;86.92;69655.84;1794716;79;21840;-57
2021/01/25 02:12:14;;;;;;;7.22;4.08;;;;;;;15.94;86.96;70180.75;1804063;79;21352;-57
2021/01/25 02:14:46;;;;;;;9.38;4.50;;;;;;;15.94;86.96;69962.27;1801117;79;21301;-57
2021/01/25 02:17:18;;;;;;;7.05;4.15;;;;;;;16.28;85.81;63281.38;1796364;79;21143;-57
2021/01/25 02:20:06;;;;;;;10.03;4.33;;;;;;;16.31;85.55;62262.09;1787733;79;21290;-57
2021/01/25 02:22:56;;;;;;;8.18;4.10;;;;;;;16.05;86.24;65887.55;1773493;79;21156;-57
2021/01/25 02:25:38;;;;;;;8.98;5.28;;;;;;;15.86;86.61;68756.14;1773458;81;21280;-57
2021/01/25 02:28:10;;;;;;;8.50;5.05;;;;;;;15.81;86.63;68382.58;1789116;79;21178;-57
2021/01/25 02:30:43;;;;;;;7.10;4.08;;;;;;;15.80;86.61;67922.19;1773568;79;21329;-57
2021/01/25 02:33:15;;;;;;;8.80;4.97;;;;;;;15.79;86.30;66503.22;1778433;79;21230;-57
2021/01/25 02:35:48;;;;;;;8.65;4.60;;;;;;;15.93;86.28;65730.02;1774223;79;21226;-57
2021/01/25 02:38:21;;;;;;;11.28;5.37;;;;;;;15.88;86.15;64550.48;1778483;79;21221;-57
2021/01/25 02:40:53;;;;;;;6.37;4.35;;;;;;;15.85;86.72;69406.81;1804915;79;21392;-57
2021/01/25 02:43:25;;;;;;;8.20;4.47;;;;;;;15.75;86.51;69816.70;1794563;79;21202;-57
2021/01/25 02:45:58;;;;;;;10.78;4.50;;;;;;;15.72;86.57;67392.59;1774016;79;21234;-57
2021/01/25 02:48:30;;;;;;;8.28;4.62;;;;;;;15.72;86.73;68088.88;1785421;79;21166;-57
2021/01/25 02:51:04;;;;;;;7.40;4.37;;;;;;;15.68;86.41;66579.33;1802984;79;21345;-57
2021/01/25 02:53:36;;;;;;;8.33;5.25;;;;;;;15.64;86.60;67152.91;1778691;79;21369;-57
2021/01/25 02:56:08;;;;;;;8.10;4.60;;;;;;;15.69;86.67;67352.31;1778522;79;21753;-57
2021/01/25 02:58:40;;;;;;;7.45;4.95;;;;;;;15.71;86.65;67161.53;1791802;79;21199;-57
2021/01/25 03:01:13;;;;;;;6.97;4.10;;;;;;;15.70;86.56;66300.70;1774199;79;21210;-57
2021/01/25 03:03:45;;;;;;;7.70;4.55;;;;;;;15.62;86.16;65380.25;1775924;79;21163;-57
2021/01/25 03:06:19;;;;;;;9.75;5.12;;;;;;;15.56;85.81;61879.74;1773332;81;21696;-57
2021/01/25 03:08:51;;;;;;;8.65;5.10;;;;;;;15.55;85.98;62324.72;1779394;79;21238;-57
2021/01/25 03:11:23;;;;;;;9.10;5.50;;;;;;;15.55;86.23;63742.92;1782779;79;21357;-57
2021/01/25 03:14:11;;;;;;;10.38;5.17;;;;;;;15.55;86.89;67558.45;1783710;79;21140;-57
2021/01/25 03:16:43;;;;;;;8.50;4.97;;;;;;;15.55;86.45;65443.28;1799774;79;21333;-58
2021/01/25 03:19:16;;;;;;;8.33;4.95;;;;;;;15.49;86.07;63025.49;1783732;79;21188;-57
2021/01/25 03:21:54;;;;;;;8.83;4.90;;;;;;;15.48;86.16;63524.18;1778447;79;21246;-57
2021/01/25 03:24:26;;;;;;;8.25;5.17;;;;;;;15.52;86.26;64653.70;1785926;79;21159;-57
2021/01/25 03:26:59;;;;;;;10.80;5.45;;;;;;;15.56;86.07;62485.62;1805593;79;21309;-57
2021/01/25 03:29:32;;;;;;;10.15;5.58;;;;;;;15.57;86.15;63243.87;1799618;79;21287;-57
2021/01/25 03:32:05;;;;;;;10.93;5.65;;;;;;;15.63;86.18;62802.27;1798614;79;21194;-57
2021/01/25 03:34:37;;;;;;;11.03;6.10;;;;;;;15.70;86.23;63302.93;1779499;79;21302;-57
2021/01/25 03:37:09;;;;;;;14.50;7.08;;;;;;;15.75;86.12;62655.29;1773661;79;21197;-57
2021/01/25 03:39:42;;;;;;;17.90;12.03;;;;;;;15.77;85.98;62236.56;1796458;79;21229;-57
2021/01/25 03:42:14;;;;;;;17.90;11.10;;;;;;;15.79;86.14;63393.92;1804695;79;21190;-57
2021/01/25 03:44:47;;;;;;;19.32;9.08;;;;;;;15.79;85.83;62601.55;1776993;79;21172;-57
2021/01/25 03:47:19;;;;;;;12.03;7.10;;;;;;;15.78;85.90;61969.85;1774096;79;21203;-57
2021/01/25 03:49:52;;;;;;;9.68;5.83;;;;;;;15.85;86.04;62685.11;1773571;79;21298;-57
2021/01/25 03:52:25;;;;;;;10.30;5.37;;;;;;;15.90;86.24;64071.51;1773528;81;21219;-57
2021/01/25 03:54:58;;;;;;;7.60;5.05;;;;;;;15.96;86.17;64110.26;1776541;79;21230;-57
2021/01/25 03:57:30;;;;;;;13.10;5.60;;;;;;;15.96;85.98;63331.17;1784054;79;21191;-57
2021/01/25 04:00:05;;;;;;;9.25;5.53;;;;;;;15.98;86.10;63908.53;1789528;79;21206;-57
2021/01/25 04:02:38;;;;;;;9.45;5.67;;;;;;;15.98;85.73;62131.44;1802996;79;21279;-57
2021/01/25 04:05:11;;;;;;;10.98;5.25;;;;;;;15.98;85.77;62179.96;1795187;79;21155;-57
2021/01/25 04:07:45;;;;;;;10.23;5.60;;;;;;;15.98;85.27;61381.67;1805317;79;21631;-57
2021/01/25 04:10:17;;;;;;;11.20;6.08;;;;;;;16.01;85.28;60252.18;1776203;79;21151;-57
2021/01/25 04:12:50;;;;;;;9.30;5.83;;;;;;;16.01;85.14;59504.66;1773686;81;21265;-58
2021/01/25 04:15:23;;;;;;;10.40;5.85;;;;;;;16.00;84.99;59427.40;1783703;79;21203;-57
2021/01/25 04:17:55;;;;;;;10.45;5.95;;;;;;;15.98;85.05;59248.38;1780815;79;21705;-57
2021/01/25 04:20:27;;;;;;;11.25;7.37;;;;;;;15.97;84.80;59874.46;1773945;79;21170;-58
2021/01/25 04:23:00;;;;;;;11.78;6.67;;;;;;;15.97;84.49;58975.12;1804901;79;21337;-57
2021/01/25 04:25:33;;;;;;;12.23;6.62;;;;;;;15.88;83.78;57375.43;1792940;79;21333;-58
2021/01/25 04:28:05;;;;;;;11.00;6.58;;;;;;;15.94;84.40;58150.95;1794918;79;21277;-57
2021/01/25 04:30:37;;;;;;;9.73;6.22;;;;;;;15.95;84.45;58406.43;1775794;79;21229;-58
2021/01/25 04:33:10;;;;;;;10.75;6.05;;;;;;;15.95;84.34;58015.03;1773809;81;21218;-58
2021/01/25 04:35:42;;;;;;;9.63;5.67;;;;;;;15.95;84.13;57312.46;1792308;79;21289;-57
2021/01/25 04:38:14;;;;;;;9.50;5.92;;;;;;;15.95;84.12;57727.93;1791103;79;21199;-57
2021/01/25 04:40:47;;;;;;;10.23;5.65;;;;;;;15.88;83.40;55826.39;1793548;79;21299;-57
2021/01/25 04:43:20;;;;;;;6.40;4.58;;;;;;;15.89;83.88;56671.36;1803927;79;21290;-58
2021/01/25 04:45:53;;;;;;;7.60;5.12;;;;;;;15.90;83.98;56955.72;1790126;79;21655;-58
2021/01/25 04:48:27;;;;;;;8.85;5.55;;;;;;;15.95;83.77;56285.49;1804105;79;21329;-58
2021/01/25 04:51:00;;;;;;;10.40;6.50;;;;;;;15.97;83.64;55848.16;1797208;79;21395;-73
2021/01/25 04:53:33;;;;;;;8.15;5.08;;;;;;;15.97;83.46;55185.07;1810699;77;21742;-64
2021/01/25 04:56:06;;;;;;;8.25;5.12;;;;;;;15.99;83.24;54093.97;1815702;79;22023;-65
2021/01/25 04:58:38;;;;;;;8.20;5.05;;;;;;;15.97;82.83;53602.83;1817849;79;21214;-57
2021/01/25 05:01:11;;;;;;;7.60;5.10;;;;;;;15.98;82.99;54262.94;1813722;79;21391;-67
2021/01/25 05:03:43;;;;;;;9.15;5.47;;;;;;;15.93;82.07;51369.91;1813534;79;21265;-66
2021/01/25 05:06:17;;;;;;;10.43;5.95;;;;;;;15.92;81.94;49245.79;1817529;77;21273;-70
2021/01/25 05:08:52;;;;;;;8.33;5.30;;;;;;;15.80;82.51;52095.23;1816225;77;21352;-70
2021/01/25 05:11:24;;;;;;;8.83;4.92;;;;;;;16.19;81.72;49720.54;1817656;79;21722;-57
2021/01/25 05:14:04;;;;;;;7.40;5.08;;;;;;;16.21;81.33;50196.22;1814445;79;21194;-62
2021/01/25 05:16:36;;;;;;;8.25;5.15;;;;;;;16.20;81.50;48165.98;1816529;77;21191;-65
2021/01/25 05:19:11;;;;;;;8.30;4.80;;;;;;;16.25;81.41;47907.77;1814511;79;22456;-60
2021/01/25 05:21:48;;;;;;;11.50;4.85;;;;;;;16.12;81.74;49155.59;1815493;79;21288;-60
2021/01/25 05:24:21;;;;;;;10.50;5.90;;;;;;;16.07;81.96;49658.62;1812518;79;21798;-60
2021/01/25 05:26:59;;;;;;;10.55;5.87;;;;;;;16.04;82.62;52570.61;1814837;79;21190;-60
2021/01/25 05:29:31;;;;;;;10.98;5.72;;;;;;;16.04;82.54;51706.57;1817542;79;21129;-63
2021/01/25 05:32:09;;;;;;;11.00;5.90;;;;;;;16.06;82.52;51790.32;1816061;79;21344;-62
2021/01/25 05:34:41;;;;;;;8.43;4.87;;;;;;;16.00;82.33;51266.10;1816465;79;21273;-62
2021/01/25 05:37:18;;;;;;;7.12;4.05;;;;;;;15.93;81.42;47290.18;1815810;79;21336;-63
2021/01/25 05:39:51;;;;;;;6.67;3.85;;;;;;;15.92;81.96;49772.40;1817482;77;21308;-62
2021/01/25 05:42:26;;;;;;;6.80;3.92;;;;;;;15.94;82.15;50814.96;1815992;79;21301;-75
2021/01/25 05:45:07;;;;;;;7.35;3.98;;;;;;;15.98;81.66;48715.76;1810349;78;21154;-61
2021/01/25 05:47:51;;;;;;;6.78;3.72;;;;;;;15.95;81.30;48370.35;1801609;79;21330;-61
2021/01/25 05:50:46;;;;;;;5.80;4.33;;;;;;;15.94;81.30;48315.24;1816569;79;21146;-64
2021/01/25 05:53:19;;;;;;;6.00;3.90;;;;;;;15.97;80.96;46930.90;1803100;79;21218;-62
2021/01/25 05:55:55;;;;;;;7.08;3.52;;;;;;;16.00;81.04;46969.01;1776569;79;21175;-63
2021/01/25 05:58:33;;;;;;;7.28;3.70;;;;;;;16.02;80.87;47374.89;1792863;78;21883;-60
2021/01/25 06:01:09;;;;;;;6.08;3.98;;;;;;;16.02;80.54;45410.71;1802427;79;21357;-59
2021/01/25 06:03:41;;;;;;;7.50;3.75;;;;;;;16.00;80.36;44476.49;1792926;79;21660;-60
2021/01/25 06:06:19;;;;;;;7.00;3.87;;;;;;;15.99;79.60;44188.39;1784893;79;21239;-59
2021/01/25 06:09:04;;;;;;;4.80;3.40;;;;;;;15.97;79.91;42345.64;1793686;79;21175;-59
2021/01/25 06:11:37;;;;;;;6.85;4.05;;;;;;;15.97;79.67;41297.80;1799942;79;21179;-60
2021/01/25 06:14:28;;;;;;;7.85;4.12;;;;;;;15.99;80.45;42982.44;1787411;79;21191;-59
2021/01/25 06:17:00;;;;;;;8.70;4.25;;;;;;;16.04;80.12;42369.76;1788165;79;21274;-59
2021/01/25 06:19:32;;;;;;;6.45;3.58;;;;;;;15.99;79.19;39858.45;1773846;81;21174;-59
2021/01/25 06:22:06;;;;;;;6.55;3.90;;;;;;;15.99;79.18;40746.47;1766888;79;21187;-59
2021/01/25 06:24:39;;;;;;;6.53;4.53;;;;;;;16.02;79.73;40260.22;1800740;79;21203;-59
2021/01/25 06:27:18;;;;;;;7.00;3.95;;;;;;;16.02;79.47;40338.74;1805201;79;21904;-59
2021/01/25 06:29:53;;;;;;;5.87;3.95;;;;;;;16.02;79.10;38987.61;1805496;79;21171;-59
2021/01/25 06:32:32;;;;;;;7.30;4.42;;;;;;;16.04;79.34;39500.54;1798866;79;21781;-59
2021/01/25 06:35:07;;;;;;;7.67;4.10;;;;;;;16.06;79.43;39739.15;1775771;79;21671;-59
2021/01/25 06:37:39;;;;;;;7.62;4.20;;;;;;;16.09;79.04;38417.58;1785841;79;21254;-59
2021/01/25 06:40:14;;;;;;;7.62;4.55;;;;;;;16.09;78.71;38286.33;1787781;79;21802;-59
2021/01/25 06:42:47;;;;;;;6.65;4.28;;;;;;;16.10;78.91;38715.96;1805291;79;21313;-59
2021/01/25 06:45:26;;;;;;;5.55;3.17;;;;;;;16.18;78.73;38846.93;1794720;79;21337;-59
2021/01/25 06:47:58;;;;;;;4.95;3.52;;;;;;;16.15;78.55;37886.78;1805361;79;21199;-59
2021/01/25 06:50:31;;;;;;;5.30;3.15;;;;;;;16.16;77.99;38332.64;1769773;79;21226;-59
2021/01/25 06:53:04;;;;;;;5.90;4.05;;;;;;;16.16;77.34;36527.87;1779187;80;21302;-59
2021/01/25 06:55:37;;;;;;;7.10;4.00;;;;;;;16.19;78.12;36468.94;1763329;81;21313;-60
2021/01/25 06:58:12;;;;;;;4.30;3.55;;;;;;;16.21;77.79;36101.29;1783106;79;21365;-59
2021/01/25 07:00:45;;;;;;;6.20;3.98;;;;;;;16.22;77.91;35992.37;1771904;79;21171;-59
2021/01/25 07:03:21;;;;;;;6.80;3.83;;;;;;;16.27;78.29;37037.19;1794297;79;21199;-59
2021/01/25 07:05:57;;;;;;;5.50;3.50;;;;;;;16.23;77.80;37809.89;1789492;78;21836;-59
2021/01/25 07:08:30;;;;;;;5.60;3.52;;;;;;;16.37;77.37;36517.68;1797123;79;21167;-60
2021/01/25 07:11:04;;;;;;;5.83;4.12;;;;;;;16.32;76.09;34138.25;1763314;81;21202;-59
2021/01/25 07:13:37;;;;;;;5.08;3.60;;;;;;;16.32;76.15;32775.77;1794811;79;21162;-59
2021/01/25 07:16:09;;;;;;;5.20;3.90;;;;;;;16.28;75.54;33744.86;1782608;79;21352;-59
2021/01/25 07:18:43;;;;;;;6.62;4.10;;;;;;;16.18;74.94;33236.20;1803314;79;21372;-59
2021/01/25 07:21:15;;;;;;;5.95;3.85;;;;;;;16.24;75.51;30525.87;1787746;79;21716;-59
2021/01/25 07:23:49;;;;;;;6.53;4.20;;;;;;;16.13;74.14;31570.13;1779943;79;21289;-59
2021/01/25 07:26:21;;;;;;;5.45;3.70;;;;;;;16.13;74.61;27173.44;1773900;79;21239;-59
2021/01/25 07:28:54;;;;;;;5.95;3.85;;;;;;;16.15;74.15;28384.46;1773866;81;21309;-59
2021/01/25 07:31:26;;;;;;;8.28;4.62;;;;;;;16.18;73.99;27373.91;1782455;79;21269;-58
2021/01/25 07:33:58;;;;;;;9.18;4.95;;;;;;;16.30;74.17;27210.32;1792855;79;21305;-59
2021/01/25 07:36:32;;;;;;;6.83;4.65;;;;;;;16.13;73.85;24467.48;1804640;79;21961;-58
2021/01/25 07:39:12;;;;;;;7.40;4.72;;;;;;;15.98;73.96;23979.88;1805151;79;21173;-58
2021/01/25 07:41:45;;;;;;;7.53;4.20;;;;;;;16.11;74.02;22990.21;1805729;79;21345;-58
2021/01/25 07:44:18;;;;;;;7.67;4.92;;;;;;;16.10;73.36;26346.71;1805115;79;21739;-58
2021/01/25 07:46:50;;;;;;;7.75;4.85;;;;;;;16.09;73.29;24448.40;1805371;79;21321;-58
2021/01/25 07:49:29;;;;;;;7.72;4.85;;;;;;;16.21;73.53;23957.78;1805303;79;21178;-58
2021/01/25 07:52:01;;;;;;;7.65;4.58;;;;;;;16.29;73.23;20871.15;1805331;79;21269;-58
2021/01/25 07:54:34;;;;;;;7.92;5.00;;;;;;;16.40;72.71;23443.08;1805036;79;21407;-58
2021/01/25 07:57:24;;;;;;;8.05;5.25;;;;;;;16.32;72.01;26049.89;1805517;79;21160;-58
2021/01/25 07:59:58;;;;;;;9.25;5.00;;;;;;;16.43;72.08;27153.26;1805346;79;21294;-59
2021/01/25 08:02:34;;;;;;;7.62;5.33;;;;;;;16.23;71.89;26922.03;1804924;78;21207;-59
2021/01/25 08:05:07;;;;;;;7.45;4.80;;;;;;;16.33;72.27;23555.98;1805279;79;21152;-59
2021/01/25 08:07:40;;;;;;;11.35;5.85;;;;;;;16.39;72.23;23551.82;1805314;79;21317;-59
2021/01/25 08:10:14;;;;;;;9.28;5.28;;;;;;;16.44;71.62;26990.23;1794214;79;21311;-59
2021/01/25 08:12:48;;;;;;;8.68;5.33;;;;;;;16.57;71.79;26444.60;1805058;79;21896;-59
2021/01/25 08:15:30;;;;;;;10.30;6.33;;;;;;;16.49;71.46;27169.68;1805281;79;21174;-59
2021/01/25 08:18:06;;;;;;;8.83;5.95;;;;;;;16.52;71.68;26268.40;1805215;79;21195;-59
2021/01/25 08:20:39;;;;;;;9.10;6.33;;;;;;;16.52;71.16;28805.87;1805309;79;21706;-59
2021/01/25 08:23:23;;;;;;;10.58;6.72;;;;;;;16.50;70.83;29540.51;1805031;79;21306;-59
2021/01/25 08:26:01;;;;;;;10.35;6.05;;;;;;;16.42;71.10;26229.95;1805183;79;21180;-59
2021/01/25 08:28:35;;;;;;;12.33;6.60;;;;;;;16.26;70.89;26841.21;1805179;79;21270;-59
2021/01/25 08:31:13;;;;;;;11.97;6.60;;;;;;;16.33;71.24;23293.20;1805238;79;21206;-59
2021/01/25 08:34:01;;;;;;;10.20;6.30;;;;;;;16.38;71.03;26462.53;1805422;79;21698;-59
2021/01/25 08:36:37;;;;;;;13.78;7.47;;;;;;;16.49;71.21;25736.59;1805194;79;21298;-59
2021/01/25 08:39:17;;;;;;;10.65;6.37;;;;;;;16.52;71.20;25732.81;1805206;79;21687;-59
2021/01/25 08:41:52;;;;;;;11.25;6.60;;;;;;;16.52;71.02;26413.89;1805333;79;21675;-59
2021/01/25 08:44:24;;;;;;;11.65;7.15;;;;;;;16.64;71.15;26275.43;1805556;79;21309;-59
2021/01/25 08:47:00;;;;;;;17.73;7.60;;;;;;;16.70;70.66;28508.31;1805224;79;21666;-59
2021/01/25 08:49:41;;;;;;;13.80;7.12;;;;;;;16.63;70.41;28958.74;1792791;79;21349;-59
2021/01/25 08:52:31;;;;;;;13.88;7.67;;;;;;;16.53;70.56;26815.36;1805443;79;21805;-59
2021/01/25 08:55:16;;;;;;;15.10;8.13;;;;;;;16.58;70.41;27925.69;1805285;79;21357;-59
2021/01/25 08:57:48;;;;;;;12.35;6.70;;;;;;;16.38;70.48;26980.57;1803860;79;21313;-59
2021/01/25 09:00:34;;;;;;;13.72;7.42;;;;;;;16.44;70.61;25937.93;1805320;79;21194;-59
2021/01/25 09:03:07;;;;;;;11.68;7.75;;;;;;;16.46;70.66;25458.92;1805424;79;21214;-59
2021/01/25 09:05:40;;;;;;;11.90;7.12;;;;;;;16.52;70.81;23751.53;1794386;79;21344;-59
2021/01/25 09:08:13;;;;;;;11.48;7.33;;;;;;;16.37;71.20;21342.72;1805498;79;21250;-59
2021/01/25 09:10:46;;;;;;;15.23;7.83;;;;;;;16.43;71.40;20240.91;1805030;79;21659;-59
2021/01/25 09:13:18;;;;;;;13.55;7.70;;;;;;;16.48;71.48;19675.69;1805283;79;21284;-59
2021/01/25 09:15:51;;;;;;;12.63;8.13;;;;;;;16.52;71.34;20594.45;1805200;79;21207;-59
2021/01/25 09:18:23;;;;;;;15.38;7.67;;;;;;;16.51;71.23;21034.34;1805625;79;21187;-59
2021/01/25 09:20:56;;;;;;;10.82;7.05;;;;;;;16.63;71.38;20520.50;1805271;79;21667;-58
2021/01/25 09:23:28;;;;;;;13.65;7.75;;;;;;;16.68;71.41;20670.40;1805204;79;21171;-59
2021/01/25 09:26:00;;;;;;;15.55;7.47;;;;;;;16.71;71.39;20656.92;1805219;79;21318;-59
2021/01/25 09:28:32;;;;;;;13.28;8.20;;;;;;;16.79;71.41;19200.74;1805253;79;21317;-59
2021/01/25 09:31:05;;;;;;;15.15;8.10;;;;;;;16.80;70.94;23593.68;1805222;79;21256;-59
2021/01/25 09:33:37;;;;;;;13.48;7.80;;;;;;;16.74;70.83;23139.36;1805211;79;21372;-59
2021/01/25 09:36:10;;;;;;;14.53;7.90;;;;;;;16.70;70.81;22544.67;1805436;79;21671;-59
2021/01/25 09:38:42;;;;;;;12.70;7.45;;;;;;;16.66;70.83;22351.41;1805600;79;21345;-59
2021/01/25 09:41:15;;;;;;;13.68;7.80;;;;;;;16.60;70.91;21303.44;1805545;79;21183;-59
2021/01/25 09:43:49;;;;;;;14.60;7.60;;;;;;;16.58;70.90;20560.36;1805442;79;21776;-60
2021/01/25 09:46:22;;;;;;;17.25;9.48;;;;;;;16.72;71.05;20418.63;1805103;79;21353;-59
2021/01/25 09:48:54;;;;;;;13.50;8.68;;;;;;;16.81;71.04;20568.90;1805381;79;21194;-60
2021/01/25 09:51:26;;;;;;;10.32;6.47;;;;;;;16.67;70.73;22044.50;1804848;79;21183;-68
2021/01/25 09:53:58;;;;;;;11.88;6.40;;;;;;;16.71;70.55;22205.38;1800274;79;21234;-61
2021/01/25 09:56:30;;;;;;;11.05;6.70;;;;;;;16.69;70.30;23580.87;1795210;79;21160;-63
2021/01/25 09:59:03;;;;;;;12.37;6.80;;;;;;;16.82;70.31;22773.24;1788939;79;21251;-63
2021/01/25 10:01:37;;;;;;;18.55;10.60;;;;;;;17.03;70.38;21909.35;1787913;79;21175;-64
2021/01/25 10:04:09;;;;;;;16.15;10.75;;;;;;;17.15;70.07;24241.91;1789901;79;21365;-61
2021/01/25 10:06:42;;;;;;;14.60;10.18;;;;;;;17.31;70.25;24008.87;1804371;79;21171;-61
2021/01/25 10:09:14;;;;;;;21.85;15.75;;;;;;;17.41;70.03;25253.00;1805367;79;21213;-65
2021/01/25 10:11:46;;;;;;;23.12;17.50;;;;;;;17.45;69.79;27123.32;1804185;79;21210;-61
2021/01/25 10:14:18;;;;;;;16.93;9.50;;;;;;;17.49;69.52;28400.16;1736730;82;21697;-60
2021/01/25 10:16:51;;;;;;;18.40;13.78;;;;;;;17.43;69.55;27368.59;1789655;79;21809;-60
2021/01/25 10:19:24;;;;;;;21.07;15.08;;;;;;;17.41;69.64;26260.58;1800647;79;21174;-60
2021/01/25 10:21:56;;;;;;;15.28;10.55;;;;;;;17.42;69.48;25358.58;1804368;79;21207;-60
2021/01/25 10:24:28;;;;;;;87.20;63.50;;;;;;;17.49;69.51;26402.44;1804597;79;21170;-61
2021/01/25 10:27:00;;;;;;;19.12;13.03;;;;;;;17.46;69.50;25765.71;1804889;79;21230;-60
2021/01/25 10:29:33;;;;;;;12.25;8.15;;;;;;;17.42;69.52;24436.33;1805145;79;21210;-60
2021/01/25 10:32:05;;;;;;;11.63;6.47;;;;;;;17.41;69.42;25307.02;1804647;79;21239;-61
2021/01/25 10:34:38;;;;;;;10.82;5.75;;;;;;;17.33;69.44;23572.34;1805247;79;21214;-61
2021/01/25 10:37:11;;;;;;;10.78;5.35;;;;;;;17.30;69.35;24564.68;1805642;79;21172;-61
2021/01/25 10:39:43;;;;;;;12.50;7.00;;;;;;;17.18;69.37;23634.73;1805204;79;21203;-60
2021/01/25 10:42:15;;;;;;;10.98;5.75;;;;;;;17.18;69.59;21312.49;1805086;79;21663;-60
2021/01/25 10:44:47;;;;;;;9.33;6.05;;;;;;;17.18;69.85;19422.25;1805379;79;21143;-61
2021/01/25 10:47:21;;;;;;;12.93;7.58;;;;;;;17.19;69.71;19930.98;1805263;79;21230;-60
2021/01/25 10:49:53;;;;;;;13.93;6.70;;;;;;;17.20;69.92;18667.05;1805381;79;21289;-60
2021/01/25 10:52:25;;;;;;;10.90;6.95;;;;;;;17.19;69.82;19478.23;1805377;79;21242;-60
2021/01/25 10:54:57;;;;;;;28.25;11.20;;;;;;;17.20;69.89;18964.88;1805325;79;21191;-60
2021/01/25 10:57:33;;;;;;;13.62;7.28;;;;;;;17.16;69.88;18982.16;1805020;78;21195;-60
2021/01/25 11:00:16;;;;;;;11.53;6.67;;;;;;;17.10;70.01;17851.19;1805268;79;22306;-60
2021/01/25 11:02:49;;;;;;;14.10;7.78;;;;;;;17.14;70.12;17585.80;1805262;79;21175;-60
2021/01/25 11:05:25;;;;;;;14.33;7.35;;;;;;;17.11;70.07;17650.81;1805266;79;21313;-60
2021/01/25 11:07:58;;;;;;;10.68;7.00;;;;;;;17.10;70.07;17317.63;1805418;79;21174;-60
2021/01/25 11:10:31;;;;;;;12.63;7.20;;;;;;;17.08;70.15;16829.63;1805223;79;21345;-60
2021/01/25 11:13:04;;;;;;;16.90;7.35;;;;;;;17.08;70.12;16437.64;1805381;79;21349;-61
2021/01/25 11:15:37;;;;;;;12.85;7.55;;;;;;;17.02;70.13;16170.71;1805159;79;21329;-60
2021/01/25 11:18:09;;;;;;;15.50;8.45;;;;;;;17.03;70.25;15294.74;1805180;79;21214;-60
2021/01/25 11:20:42;;;;;;;14.70;8.70;;;;;;;17.01;70.25;15052.25;1805345;79;21294;-60
2021/01/25 11:23:14;;;;;;;13.60;7.40;;;;;;;16.95;70.32;14549.85;1805193;79;21207;-60
2021/01/25 11:25:46;;;;;;;14.28;8.05;;;;;;;17.00;70.33;15003.37;1805495;79;21175;-60
2021/01/25 11:28:19;;;;;;;14.50;7.50;;;;;;;16.99;70.29;14922.49;1805182;79;21202;-61
2021/01/25 11:30:52;;;;;;;12.37;7.33;;;;;;;16.98;70.34;14731.13;1805409;79;21662;-60
2021/01/25 11:33:24;;;;;;;20.92;11.60;;;;;;;16.98;70.43;14265.61;1805438;79;21257;-60
2021/01/25 11:35:57;;;;;;;13.58;10.00;;;;;;;16.89;70.51;13610.79;1805455;79;21222;-60
2021/01/25 11:38:31;;;;;;;15.93;8.60;;;;;;;16.89;70.50;13762.64;1805043;79;21353;-60
2021/01/25 11:41:04;;;;;;;17.42;7.58;;;;;;;16.87;70.64;12768.38;1805255;79;21214;-60
2021/01/25 11:43:37;;;;;;;20.20;8.00;;;;;;;16.77;70.82;11592.53;1805143;79;21313;-60
2021/01/25 11:46:09;;;;;;;16.30;7.17;;;;;;;16.75;70.94;10643.52;1805003;79;21306;-60
2021/01/25 11:48:42;;;;;;;13.93;7.70;;;;;;;16.58;71.19;9627.48;1805481;79;21178;-60
2021/01/25 11:51:14;;;;;;;13.55;7.28;;;;;;;16.58;71.33;8953.48;1805383;79;21286;-60
2021/01/25 11:53:46;;;;;;;12.28;6.72;;;;;;;16.59;71.39;8497.41;1805275;79;21223;-61
2021/01/25 11:56:19;;;;;;;11.40;7.00;;;;;;;16.62;71.46;8535.44;1805485;79;21218;-60
2021/01/25 11:58:51;;;;;;;18.20;7.97;;;;;;;16.59;71.52;8087.99;1805108;78;21187;-60
2021/01/25 12:01:23;;;;;;;16.20;9.13;;;;;;;16.46;71.73;6910.69;1805070;79;21737;-61